OIIK  Qazvin  Airport

Qazvin, Iran

Add Bookmark
ICAO OIIK
Type Airport
Status Operational
Latitude
36° 14' 24" N
36.240101
Longitude
50° 2' 49" E
50.047100
Local (DST + 5) UTC (GMT + 4)
Sep 3, 2015 05:21 Sep 3, 2015 12:51
Sunrise-Sunset Local UTC
Begin Civil Twilight 06:15 01:45
Sunrise 06:41 02:11
Sunset 07:36 15:06
End Civil Twilight 08:03 15:33
VFR
VFR
MVFR
MVFR
IFR
IFR
LIFR
LIFR
Unknown
Unavailable

Current Weather

METAR Observed VFR
OIIK 031200Z 32002KT 9999 FEW040 29/09 Q1018 Thu, Sep 3, 2015 @ 12:00 UTC
(51 Minutes ago)
Visual Flight Rules
Wind Visibility Clouds Conditions
320° at 2 knots (4 kph) 10 km or more
  • Few at 4,000 ft AGL
  • No significant weather
Temperatures Readings Precipitation
Current Temp
29°C
84°F
Dewpoint
9°C
48°F
Humidity 29%
Altimeter 30.06" Hg
Sea Level Pressure 1,018 mb
Field Elevation
1,278 m
4,193 ft
None Recorded

Additional weather within a 92.6km radius of OIIK

Map ICAO Location
OIIP 87km SE (126°)
VFR
VFR
MVFR
MVFR
IFR
IFR
LIFR
LIFR
Unknown
Unavailable
-
-

CheckWX.com is intended as a tool to help pilots better visualize weather data. It is not intended as a substitute for an official weather briefing obtained from a Flight Service Station. CheckWX.com does not meet the FAA requirements for an official pre-flight weather briefing. Therefore, it's important that pilots still call and obtain an official FSS pre-flight weather briefing.

© 2007-2015 CheckWX.com
12:51:49 UTC